Laguna de Pozuelos, Argentina
Current Conditions -  °F | °C
As of 8:00 PM on Thursday 18 Dec 2014 (Local Time) from SLTJ Reporting Station
Broken Clouds Broken Clouds  
Wind Chill: 19°   Ceiling: 20000
Heat Index: 19°   Visibility: 6mi
Dew Point: 14°   Wind: 12mph
Humidity: 73%   Direction: 130°SE
Pressure: 30"   Gusts: NA
Location:  22.37°S, 66.02°W
Report Text: SLTJ 182300Z 13010KT 9999 SCT030 BKN200 19/14 Q1016
Loading
Personal Weather Stations






























Interactive Weather Map New forecast layout! Learn more

10-Day Weather Forecast

Advertisements
Track Severe Weather on mobile